createdAt,value
2024-03-01T00:01:36.341Z,99429.77
2024-03-01T00:04:04.244Z,99431.30
2024-03-01T00:06:31.939Z,99426.91
2024-03-01T00:08:59.756Z,99427.56
2024-03-01T00:11:27.558Z,99426.67
2024-03-01T00:13:55.285Z,99424.60
2024-03-01T00:16:23.079Z,99418.43
2024-03-01T00:18:50.615Z,99418.89
2024-03-01T00:21:18.269Z,99417.95
2024-03-01T00:23:46.127Z,99416.84
2024-03-01T00:26:13.897Z,99414.98
2024-03-01T00:28:41.556Z,99416.14
2024-03-01T00:31:09.134Z,99411.73
2024-03-01T00:33:36.670Z,99408.23
2024-03-01T00:36:04.436Z,99406.48
2024-03-01T00:38:32.088Z,99405.10
2024-03-01T00:40:59.855Z,99402.06
2024-03-01T00:43:27.930Z,99404.73
2024-03-01T00:45:55.825Z,99399.63
2024-03-01T00:48:23.564Z,99406.36
2024-03-01T00:50:51.113Z,99404.36
2024-03-01T00:53:18.679Z,99398.06
2024-03-01T00:55:46.237Z,99396.30
2024-03-01T00:58:14.029Z,99390.84
2024-03-01T01:00:41.667Z,99390.40
2024-03-01T01:03:09.431Z,99385.35
2024-03-01T01:05:37.099Z,99387.67
2024-03-01T01:08:04.752Z,99383.16
2024-03-01T01:10:32.610Z,99379.69
2024-03-01T01:13:00.629Z,99377.19
2024-03-01T01:15:28.451Z,99374.39
2024-03-01T01:17:56.042Z,99366.56
2024-03-01T01:20:23.694Z,99363.73
2024-03-01T01:22:51.435Z,99358.20
2024-03-01T01:25:19.049Z,99356.56
2024-03-01T01:27:47.061Z,99350.75
2024-03-01T01:30:14.625Z,99350.79
2024-03-01T01:32:42.428Z,99350.05
2024-03-01T01:35:10.043Z,99350.96
2024-03-01T01:37:37.898Z,99349.23
2024-03-01T01:40:05.528Z,99347.25
2024-03-01T01:42:33.343Z,99346.03
2024-03-01T01:45:00.895Z,99338.27
2024-03-01T01:47:28.573Z,99332.81
2024-03-01T01:49:56.123Z,99330.70
2024-03-01T01:52:23.850Z,99322.59
2024-03-01T01:54:51.664Z,99317.31
2024-03-01T01:57:19.202Z,99308.98
2024-03-01T01:59:46.858Z,99306.55
2024-03-01T02:02:14.517Z,99303.33
2024-03-01T02:04:42.074Z,99298.54
2024-03-01T02:07:09.701Z,99300.54
2024-03-01T02:09:37.505Z,99301.83
2024-03-01T02:12:05.126Z,99300.88
2024-03-01T02:14:32.928Z,99295.56
2024-03-01T02:17:00.529Z,99288.55
2024-03-01T02:19:28.301Z,99283.17
2024-03-01T02:21:56.038Z,99280.48
2024-03-01T02:24:23.803Z,99277.81
2024-03-01T02:26:51.342Z,99277.03
2024-03-01T02:29:19.198Z,99275.81
2024-03-01T02:31:46.767Z,99271.71
2024-03-01T02:34:14.383Z,99274.88
2024-03-01T02:36:42.086Z,99277.88
2024-03-01T02:39:09.854Z,99275.33
2024-03-01T02:41:37.410Z,99279.02
2024-03-01T02:44:04.971Z,99272.52
2024-03-01T02:46:32.667Z,99271.23
2024-03-01T02:49:00.851Z,99270.31
2024-03-01T02:51:28.460Z,99266.10
2024-03-01T02:53:56.129Z,99261.32
2024-03-01T02:56:23.801Z,99250.67
2024-03-01T02:58:51.350Z,99242.45
2024-03-01T03:01:18.948Z,99242.03
2024-03-01T03:03:46.694Z,99242.39
2024-03-01T03:06:14.328Z,99241.71
2024-03-01T03:08:42.192Z,99240.19
2024-03-01T03:11:09.882Z,99240.63
2024-03-01T03:13:37.435Z,99243.27
2024-03-01T03:16:05.109Z,99237.95
2024-03-01T03:18:32.730Z,99233.44
2024-03-01T03:21:00.301Z,99236.96
2024-03-01T03:23:27.967Z,99243.08
2024-03-01T03:25:55.534Z,99247.98
2024-03-01T03:28:23.327Z,99251.55
2024-03-01T03:30:51.690Z,99243.56
2024-03-01T03:33:19.348Z,99242.17
2024-03-01T03:35:46.983Z,99241.48
2024-03-01T03:38:14.860Z,99237.92
2024-03-01T03:40:42.574Z,99235.20
2024-03-01T03:43:10.406Z,99232.96
2024-03-01T03:45:38.030Z,99230.98
2024-03-01T03:48:06.004Z,99226.50
2024-03-01T03:50:34.200Z,99227.67
2024-03-01T03:53:01.838Z,99219.02
2024-03-01T03:55:29.534Z,99218.00
2024-03-01T03:57:56.991Z,99213.01
2024-03-01T04:00:24.514Z,99213.13
2024-03-01T04:02:52.096Z,99209.84
2024-03-01T04:05:19.694Z,99212.97
2024-03-01T04:07:47.289Z,99212.88
2024-03-01T04:10:14.894Z,99213.93
2024-03-01T04:12:42.513Z,99213.55
2024-03-01T04:15:10.524Z,99216.77
2024-03-01T04:17:38.243Z,99220.42
2024-03-01T04:20:05.932Z,99230.60
2024-03-01T04:22:33.514Z,99233.63
2024-03-01T04:25:01.263Z,99236.14
2024-03-01T04:27:28.996Z,99242.20
2024-03-01T04:29:56.562Z,99246.59
2024-03-01T04:32:24.119Z,99250.24
2024-03-01T04:34:51.668Z,99249.80
2024-03-01T04:37:19.551Z,99250.13
2024-03-01T04:39:47.207Z,99246.77
2024-03-01T04:42:14.782Z,99243.39
2024-03-01T04:44:42.505Z,99243.73
2024-03-01T04:47:10.186Z,99241.17
2024-03-01T04:49:37.844Z,99240.79
2024-03-01T04:52:05.567Z,99237.04
2024-03-01T04:54:33.566Z,99240.14
2024-03-01T04:57:01.152Z,99236.20
2024-03-01T04:59:28.690Z,99236.20
2024-03-01T05:01:56.300Z,99235.06
2024-03-01T05:04:23.932Z,99236.13
2024-03-01T05:06:51.584Z,99232.67
2024-03-01T05:09:19.133Z,99228.73
2024-03-01T05:11:46.807Z,99233.02
2024-03-01T05:14:14.353Z,99235.56
2024-03-01T05:16:42.320Z,99242.33
2024-03-01T05:19:09.986Z,99241.66
2024-03-01T05:21:37.639Z,99244.34
2024-03-01T05:24:05.202Z,99239.23
2024-03-01T05:26:32.667Z,99240.63
2024-03-01T05:29:00.235Z,99238.58
2024-03-01T05:31:32.412Z,99242.14
2024-03-01T05:34:01.734Z,99241.95
2024-03-01T05:36:29.449Z,99246.98
2024-03-01T05:38:57.009Z,99246.17
2024-03-01T05:41:24.571Z,99251.14
2024-03-01T05:43:52.128Z,99249.25
2024-03-01T05:46:19.730Z,99248.38
2024-03-01T05:48:47.342Z,99248.80
2024-03-01T05:51:14.911Z,99245.87
2024-03-01T05:53:42.774Z,99244.30
2024-03-01T05:56:10.742Z,99248.06
2024-03-01T05:58:38.455Z,99255.77
2024-03-01T06:01:06.219Z,99257.80
2024-03-01T06:03:34.028Z,99257.42
2024-03-01T06:06:01.589Z,99264.31
2024-03-01T06:08:29.246Z,99257.25
2024-03-01T06:10:56.899Z,99261.25
2024-03-01T06:13:24.692Z,99264.45
2024-03-01T06:15:52.727Z,99261.33
2024-03-01T06:18:20.533Z,99262.98
2024-03-01T06:20:48.182Z,99253.38
2024-03-01T06:23:15.828Z,99244.30
2024-03-01T06:25:43.515Z,99246.14
2024-03-01T06:28:11.217Z,99255.02
2024-03-01T06:30:40.988Z,99256.28
2024-03-01T06:33:09.674Z,99252.13
2024-03-01T06:35:37.233Z,99254.06
2024-03-01T06:38:04.683Z,99255.08
2024-03-01T06:40:32.272Z,99259.96
2024-03-01T06:42:59.939Z,99259.59
2024-03-01T06:45:27.656Z,99261.63
2024-03-01T06:47:55.052Z,99258.67
2024-03-01T06:50:22.768Z,99256.20
2024-03-01T06:52:50.450Z,99250.15
2024-03-01T06:55:18.030Z,99243.83
2024-03-01T06:57:45.654Z,99238.33
2024-03-01T07:00:13.213Z,99233.23
2024-03-01T07:02:41.201Z,99232.02
2024-03-01T07:05:08.847Z,99226.99
2024-03-01T07:07:36.585Z,99228.27
2024-03-01T07:10:04.370Z,99228.35
2024-03-01T07:12:32.062Z,99222.09
2024-03-01T07:14:59.582Z,99221.83
2024-03-01T07:17:27.184Z,99217.47
2024-03-01T07:19:54.914Z,99211.54
2024-03-01T07:22:22.511Z,99209.28
2024-03-01T07:24:50.448Z,99209.57
2024-03-01T07:27:17.999Z,99208.88
2024-03-01T07:29:45.661Z,99207.50
2024-03-01T07:32:13.215Z,99201.16
2024-03-01T07:34:40.906Z,99205.37
2024-03-01T07:37:08.461Z,99199.87
2024-03-01T07:39:35.893Z,99204.04
2024-03-01T07:42:03.450Z,99195.55
2024-03-01T07:44:31.123Z,99197.36
2024-03-01T07:46:59.242Z,99193.51
2024-03-01T07:49:27.192Z,99191.36
2024-03-01T07:51:54.983Z,99194.11
2024-03-01T07:54:22.797Z,99196.50
2024-03-01T07:56:50.444Z,99197.73
2024-03-01T07:59:18.167Z,99197.98
2024-03-01T08:01:45.917Z,99198.86
2024-03-01T08:04:13.557Z,99192.70
2024-03-01T08:06:41.507Z,99186.22
2024-03-01T08:09:09.058Z,99182.27
2024-03-01T08:11:36.762Z,99181.35
2024-03-01T08:14:04.383Z,99180.91
2024-03-01T08:16:32.112Z,99174.42
2024-03-01T08:18:59.925Z,99173.88
2024-03-01T08:21:27.468Z,99179.94
2024-03-01T08:23:55.140Z,99176.23
2024-03-01T08:26:22.812Z,99178.55
2024-03-01T08:28:50.584Z,99180.30
2024-03-01T08:31:18.229Z,99186.59
2024-03-01T08:33:45.879Z,99180.88
2024-03-01T08:36:13.430Z,99180.00
2024-03-01T08:38:41.060Z,99173.34
2024-03-01T08:41:08.861Z,99172.73
2024-03-01T08:43:36.577Z,99175.77
2024-03-01T08:46:04.291Z,99175.95
2024-03-01T08:48:31.840Z,99174.83
2024-03-01T08:50:59.398Z,99164.73
2024-03-01T08:53:26.962Z,99162.66
2024-03-01T08:55:54.517Z,99169.36
2024-03-01T08:58:22.200Z,99170.31
2024-03-01T09:00:49.754Z,99172.28
2024-03-01T09:03:17.302Z,99172.14
2024-03-01T09:05:44.860Z,99175.16
2024-03-01T09:08:12.532Z,99168.08
2024-03-01T09:10:40.192Z,99164.20
2024-03-01T09:13:08.092Z,99160.86
2024-03-01T09:15:35.702Z,99164.71
2024-03-01T09:18:03.079Z,99165.63
2024-03-01T09:20:30.725Z,99166.19
2024-03-01T09:22:58.292Z,99159.52
2024-03-01T09:25:25.854Z,99160.90
2024-03-01T09:27:53.444Z,99164.61
2024-03-01T09:30:21.077Z,99160.49
2024-03-01T09:32:49.175Z,99160.22
2024-03-01T09:35:16.790Z,99161.34
2024-03-01T09:37:44.456Z,99157.19
2024-03-01T09:40:12.290Z,99154.32
2024-03-01T09:42:39.985Z,99152.04
2024-03-01T09:45:07.643Z,99156.88
2024-03-01T09:47:35.214Z,99150.05
2024-03-01T09:50:02.979Z,99139.63
2024-03-01T09:52:30.903Z,99143.03
2024-03-01T09:54:58.851Z,99144.30
2024-03-01T09:57:26.461Z,99143.33
2024-03-01T09:59:54.030Z,99146.23
2024-03-01T10:02:21.682Z,99144.81
2024-03-01T10:04:49.329Z,99140.09
2024-03-01T10:07:17.055Z,99132.54
2024-03-01T10:09:44.772Z,99134.33
2024-03-01T10:12:12.648Z,99134.73
2024-03-01T10:14:40.292Z,99131.80
2024-03-01T10:17:09.648Z,99135.31
2024-03-01T10:19:38.782Z,99133.14
2024-03-01T10:22:06.511Z,99132.78
2024-03-01T10:24:34.261Z,99134.92
2024-03-01T10:27:01.781Z,99130.74
2024-03-01T10:29:29.331Z,99130.84
2024-03-01T10:31:56.994Z,99129.29
2024-03-01T10:34:24.932Z,99130.56
2024-03-01T10:36:52.637Z,99133.45
2024-03-01T10:39:20.288Z,99132.86
2024-03-01T10:41:48.047Z,99131.23
2024-03-01T10:44:15.625Z,99132.83
2024-03-01T10:46:43.297Z,99135.30
2024-03-01T10:49:10.907Z,99134.84
2024-03-01T10:51:38.592Z,99132.44
2024-03-01T10:54:06.159Z,99127.17
2024-03-01T10:56:33.811Z,99119.20
2024-03-01T10:59:01.380Z,99120.81
2024-03-01T11:01:29.163Z,99115.80
2024-03-01T11:03:57.191Z,99110.75
2024-03-01T11:06:24.873Z,99104.34
2024-03-01T11:08:52.434Z,99105.23
2024-03-01T11:11:20.010Z,99106.29
2024-03-01T11:13:48.100Z,99107.38
2024-03-01T11:16:15.645Z,99109.65
2024-03-01T11:18:43.276Z,99105.38
2024-03-01T11:21:10.838Z,99103.75
2024-03-01T11:23:38.506Z,99102.21
2024-03-01T11:26:06.052Z,99099.27
2024-03-01T11:28:33.716Z,99097.92
2024-03-01T11:31:01.536Z,99100.31
2024-03-01T11:33:29.274Z,99100.67
2024-03-01T11:35:57.123Z,99101.95
2024-03-01T11:38:24.680Z,99097.09
2024-03-01T11:40:52.237Z,99099.39
2024-03-01T11:43:19.836Z,99094.73
2024-03-01T11:45:47.862Z,99092.68
2024-03-01T11:48:15.544Z,99094.88
2024-03-01T11:50:43.299Z,99092.38
2024-03-01T11:53:13.814Z,99089.60
2024-03-01T11:55:41.751Z,99081.23
2024-03-01T11:58:09.484Z,99084.15
2024-03-01T12:00:37.285Z,99080.62
2024-03-01T12:03:04.974Z,99082.14
2024-03-01T12:05:32.666Z,99082.02
2024-03-01T12:08:02.004Z,99074.95
2024-03-01T12:10:30.754Z,99072.98
2024-03-01T12:12:58.295Z,99066.76
2024-03-01T12:15:25.836Z,99068.14
2024-03-01T12:17:53.447Z,99066.36
2024-03-01T12:20:21.564Z,99065.49
2024-03-01T12:22:49.442Z,99066.10
2024-03-01T12:25:17.252Z,99068.19
2024-03-01T12:27:45.067Z,99069.63
2024-03-01T12:30:12.641Z,99068.31
2024-03-01T12:32:40.302Z,99072.23
2024-03-01T12:35:07.854Z,99070.45
2024-03-01T12:37:35.634Z,99067.53
2024-03-01T12:40:03.801Z,99069.34
2024-03-01T12:42:31.440Z,99066.90
2024-03-01T12:44:59.105Z,99070.86
2024-03-01T12:47:26.680Z,99066.02
2024-03-01T12:49:54.327Z,99063.71
2024-03-01T12:52:22.001Z,99066.16
2024-03-01T12:54:49.646Z,99065.38
2024-03-01T12:57:17.416Z,99067.92
2024-03-01T12:59:45.296Z,99066.78
2024-03-01T13:02:13.147Z,99063.45
2024-03-01T13:04:40.753Z,99067.33
2024-03-01T13:07:08.510Z,99066.64
2024-03-01T13:09:36.029Z,99065.95
2024-03-01T13:12:03.772Z,99063.06
2024-03-01T13:14:31.460Z,99064.45
2024-03-01T13:16:59.017Z,99060.61
2024-03-01T13:19:26.897Z,99062.26
2024-03-01T13:21:54.536Z,99057.64
2024-03-01T13:24:22.093Z,99050.58
2024-03-01T13:26:49.762Z,99051.18
2024-03-01T13:29:17.310Z,99047.01
2024-03-01T13:31:44.890Z,99046.42
2024-03-01T13:34:12.585Z,99046.88
2024-03-01T13:36:40.196Z,99046.05
2024-03-01T13:39:07.860Z,99048.62
2024-03-01T13:41:35.423Z,99045.34
2024-03-01T13:44:02.975Z,99042.84
2024-03-01T13:46:30.552Z,99046.04
2024-03-01T13:48:58.200Z,99044.98
2024-03-01T13:51:25.857Z,99043.17
2024-03-01T13:53:53.518Z,99037.95
2024-03-01T13:56:20.972Z,99038.70
2024-03-01T13:58:48.889Z,99039.63
2024-03-01T14:01:16.661Z,99043.38
2024-03-01T14:03:44.464Z,99044.02
2024-03-01T14:06:12.132Z,99047.35
2024-03-01T14:08:39.789Z,99048.41
2024-03-01T14:11:07.345Z,99046.20
2024-03-01T14:13:35.079Z,99047.58
2024-03-01T14:16:02.939Z,99047.92
2024-03-01T14:18:30.653Z,99047.39
2024-03-01T14:20:58.625Z,99046.92
2024-03-01T14:23:26.170Z,99047.59
2024-03-01T14:25:54.002Z,99047.92
2024-03-01T14:28:21.617Z,99051.35
2024-03-01T14:30:49.438Z,99057.34
2024-03-01T14:33:17.389Z,99066.92
2024-03-01T14:35:44.997Z,99068.16
2024-03-01T14:38:12.693Z,99073.00
2024-03-01T14:40:40.779Z,99071.38
2024-03-01T14:43:08.732Z,99071.20
2024-03-01T14:45:36.461Z,99076.11
2024-03-01T14:48:03.995Z,99079.21
2024-03-01T14:50:31.787Z,99077.78
2024-03-01T14:52:59.366Z,99073.66
2024-03-01T14:55:27.113Z,99076.43
2024-03-01T14:57:54.706Z,99074.08
2024-03-01T15:00:22.429Z,99074.80
2024-03-01T15:02:49.991Z,99073.54
2024-03-01T15:05:18.074Z,99077.92
2024-03-01T15:07:45.766Z,99081.78
2024-03-01T15:10:13.407Z,99084.04
2024-03-01T15:12:41.143Z,99087.90
2024-03-01T15:15:08.698Z,99090.00
2024-03-01T15:17:36.301Z,99091.55
2024-03-01T15:20:04.024Z,99088.89
2024-03-01T15:22:31.713Z,99086.52
2024-03-01T15:24:59.356Z,99083.67
2024-03-01T15:27:27.207Z,99081.69
2024-03-01T15:29:54.987Z,99084.92
2024-03-01T15:32:22.532Z,99084.73
2024-03-01T15:34:50.231Z,99086.24
2024-03-01T15:37:17.876Z,99081.88
2024-03-01T15:39:45.617Z,99083.23
2024-03-01T15:42:13.277Z,99081.35
2024-03-01T15:44:40.855Z,99087.79
2024-03-01T15:47:08.808Z,99088.15
2024-03-01T15:49:36.399Z,99090.45
2024-03-01T15:52:04.056Z,99090.32
2024-03-01T15:54:31.797Z,99094.58
2024-03-01T15:56:59.451Z,99097.09
2024-03-01T15:59:27.122Z,99100.05
2024-03-01T16:01:54.849Z,99100.92
2024-03-01T16:04:22.545Z,99101.83
2024-03-01T16:06:50.401Z,99107.02
2024-03-01T16:09:17.963Z,99112.72
2024-03-01T16:11:45.669Z,99117.64
2024-03-01T16:14:13.364Z,99120.07
2024-03-01T16:16:41.223Z,99118.41
2024-03-01T16:19:09.086Z,99118.17
2024-03-01T16:21:36.884Z,99121.15
2024-03-01T16:24:04.443Z,99124.92
2024-03-01T16:26:32.041Z,99121.80
2024-03-01T16:28:59.564Z,99122.09
2024-03-01T16:31:27.129Z,99124.17
2024-03-01T16:33:54.682Z,99126.77
2024-03-01T16:36:22.229Z,99125.95
2024-03-01T16:38:50.230Z,99130.60
2024-03-01T16:41:17.969Z,99132.64
2024-03-01T16:43:45.622Z,99128.27
2024-03-01T16:46:13.300Z,99130.84
2024-03-01T16:48:40.953Z,99132.80
2024-03-01T16:51:08.610Z,99133.85
2024-03-01T16:53:36.174Z,99134.96
2024-03-01T16:56:03.929Z,99140.42
2024-03-01T16:58:31.638Z,99141.98
2024-03-01T17:00:59.324Z,99141.79
2024-03-01T17:03:27.017Z,99145.31
2024-03-01T17:05:54.596Z,99146.04
2024-03-01T17:08:22.139Z,99149.17
2024-03-01T17:10:49.919Z,99154.98
2024-03-01T17:13:17.577Z,99157.80
2024-03-01T17:15:45.229Z,99156.67
2024-03-01T17:18:12.839Z,99159.10
2024-03-01T17:20:40.642Z,99157.94
2024-03-01T17:23:08.425Z,99156.92
2024-03-01T17:25:36.030Z,99156.86
2024-03-01T17:28:03.547Z,99157.34
2024-03-01T17:30:31.495Z,99157.20
2024-03-01T17:32:59.091Z,99155.25
2024-03-01T17:35:26.628Z,99152.58
2024-03-01T17:37:54.169Z,99153.95
2024-03-01T17:40:21.776Z,99158.48
2024-03-01T17:42:49.400Z,99156.96
2024-03-01T17:45:17.165Z,99158.70
2024-03-01T17:47:44.742Z,99158.23
2024-03-01T17:50:12.394Z,99157.33
2024-03-01T17:52:40.304Z,99159.00
2024-03-01T17:55:08.129Z,99160.80
2024-03-01T17:57:35.878Z,99157.89
2024-03-01T18:00:03.445Z,99158.14
2024-03-01T18:02:31.102Z,99155.81
2024-03-01T18:04:58.656Z,99159.89
2024-03-01T18:07:26.372Z,99158.52
2024-03-01T18:09:53.977Z,99155.84
2024-03-01T18:12:21.954Z,99157.33
2024-03-01T18:14:49.605Z,99156.29
2024-03-01T18:17:17.281Z,99156.42
2024-03-01T18:19:44.901Z,99156.42
2024-03-01T18:22:12.713Z,99152.52
2024-03-01T18:24:40.253Z,99151.11
2024-03-01T18:27:08.012Z,99159.74
2024-03-01T18:29:35.586Z,99158.63
2024-03-01T18:32:03.240Z,99159.73
2024-03-01T18:34:31.197Z,99158.51
2024-03-01T18:36:58.966Z,99154.25
2024-03-01T18:39:26.638Z,99154.25
2024-03-01T18:41:54.195Z,99152.80
2024-03-01T18:44:21.764Z,99153.30
2024-03-01T18:46:49.504Z,99153.50
2024-03-01T18:49:17.212Z,99153.61
2024-03-01T18:51:44.847Z,99153.96
2024-03-01T18:54:12.762Z,99150.24
2024-03-01T18:56:40.477Z,99152.14
2024-03-01T18:59:08.028Z,99152.80
2024-03-01T19:01:35.833Z,99154.34
2024-03-01T19:04:03.711Z,99154.05
2024-03-01T19:06:31.748Z,99153.81
2024-03-01T19:08:59.291Z,99153.41
2024-03-01T19:11:26.893Z,99151.65
2024-03-01T19:13:54.507Z,99150.64
2024-03-01T19:16:22.505Z,99149.96
2024-03-01T19:18:50.136Z,99148.80
2024-03-01T19:21:18.047Z,99145.59
2024-03-01T19:23:45.761Z,99145.61
2024-03-01T19:26:13.435Z,99141.25
2024-03-01T19:28:41.122Z,99144.17
2024-03-01T19:31:08.666Z,99142.46
2024-03-01T19:33:36.406Z,99143.95
2024-03-01T19:36:04.042Z,99139.43
2024-03-01T19:38:31.838Z,99133.35
2024-03-01T19:40:59.397Z,99133.63
2024-03-01T19:43:26.969Z,99132.58
2024-03-01T19:45:54.612Z,99127.45
2024-03-01T19:48:22.345Z,99130.60
2024-03-01T19:50:50.137Z,99131.89
2024-03-01T19:53:18.029Z,99131.23
2024-03-01T19:55:45.725Z,99132.31
2024-03-01T19:58:13.353Z,99128.66
2024-03-01T20:00:41.051Z,99127.19
2024-03-01T20:03:08.754Z,99126.05
2024-03-01T20:05:36.412Z,99122.08
2024-03-01T20:08:03.990Z,99118.31
2024-03-01T20:10:31.683Z,99121.54
2024-03-01T20:12:59.296Z,99120.03
2024-03-01T20:15:26.973Z,99122.49
2024-03-01T20:17:54.661Z,99119.77
2024-03-01T20:20:22.384Z,99123.16
2024-03-01T20:22:50.041Z,99122.72
2024-03-01T20:25:17.925Z,99123.72
2024-03-01T20:27:45.571Z,99124.16
2024-03-01T20:30:13.352Z,99123.99
2024-03-01T20:32:40.942Z,99129.39
2024-03-01T20:35:08.569Z,99128.86
2024-03-01T20:37:36.144Z,99130.33
2024-03-01T20:40:03.804Z,99127.65
2024-03-01T20:42:31.745Z,99125.41
2024-03-01T20:44:59.725Z,99121.80
2024-03-01T20:47:27.426Z,99124.55
2024-03-01T20:49:55.039Z,99128.55
2024-03-01T20:52:22.763Z,99128.85
2024-03-01T20:54:50.477Z,99124.19
2024-03-01T20:57:18.129Z,99126.27
2024-03-01T20:59:45.690Z,99126.21
2024-03-01T21:02:13.390Z,99125.45
2024-03-01T21:04:41.384Z,99120.25
2024-03-01T21:07:09.228Z,99123.03
2024-03-01T21:09:36.837Z,99122.35
2024-03-01T21:12:04.391Z,99124.89
2024-03-01T21:14:31.959Z,99124.23
2024-03-01T21:16:59.625Z,99125.13
2024-03-01T21:19:27.233Z,99125.98
2024-03-01T21:24:25.569Z,99125.78
2024-03-01T21:26:53.537Z,99125.25
2024-03-01T21:29:21.099Z,99128.04
2024-03-01T21:31:48.761Z,99128.11
2024-03-01T21:34:16.323Z,99128.97
2024-03-01T21:36:44.017Z,99128.94
2024-03-01T21:39:11.702Z,99128.58
2024-03-01T21:41:39.303Z,99125.52
2024-03-01T21:44:06.862Z,99134.46
2024-03-01T21:46:34.934Z,99134.89
2024-03-01T21:49:02.497Z,99136.51
2024-03-01T21:51:30.402Z,99136.75
2024-03-01T21:53:57.931Z,99135.95
2024-03-01T21:56:25.584Z,99134.14
2024-03-01T21:58:53.157Z,99134.38
2024-03-01T22:01:20.829Z,99131.79
2024-03-01T22:03:48.521Z,99134.58
2024-03-01T22:06:16.461Z,99136.68
2024-03-01T22:08:44.196Z,99134.92
2024-03-01T22:11:11.764Z,99128.39
2024-03-01T22:13:39.308Z,99126.01
2024-03-01T22:16:06.874Z,99124.02
2024-03-01T22:18:34.583Z,99126.31
2024-03-01T22:21:02.291Z,99126.73
2024-03-01T22:23:29.955Z,99118.90
2024-03-01T22:25:57.610Z,99123.23
2024-03-01T22:28:25.174Z,99118.45
2024-03-01T22:30:52.941Z,99116.66
2024-03-01T22:33:20.678Z,99114.77
2024-03-01T22:35:48.590Z,99116.62
2024-03-01T22:38:16.231Z,99119.40
2024-03-01T22:40:43.792Z,99121.67
2024-03-01T22:43:11.345Z,99116.28
2024-03-01T22:45:38.952Z,99117.77
2024-03-01T22:48:07.311Z,99109.96
2024-03-01T22:50:35.869Z,99110.55
2024-03-01T22:53:03.432Z,99105.36
2024-03-01T22:55:31.096Z,99109.64
2024-03-01T22:57:58.682Z,99112.08
2024-03-01T23:00:26.328Z,99109.55
2024-03-01T23:02:53.864Z,99109.19
2024-03-01T23:05:21.424Z,99105.59
2024-03-01T23:07:49.087Z,99103.52
2024-03-01T23:10:16.954Z,99103.33
2024-03-01T23:12:44.578Z,99102.50
2024-03-01T23:15:12.297Z,99102.51
2024-03-01T23:17:39.881Z,99098.03
2024-03-01T23:20:07.501Z,99090.34
2024-03-01T23:22:35.051Z,99090.30
2024-03-01T23:25:02.702Z,99092.88
2024-03-01T23:27:30.407Z,99096.84
2024-03-01T23:29:58.034Z,99095.66
2024-03-01T23:32:26.020Z,99091.23
2024-03-01T23:34:53.679Z,99088.44
2024-03-01T23:37:21.326Z,99085.96
2024-03-01T23:39:49.097Z,99083.83
2024-03-01T23:42:16.872Z,99085.28
2024-03-01T23:44:44.432Z,99081.76
2024-03-01T23:47:12.077Z,99080.59
2024-03-01T23:49:39.633Z,99082.81
2024-03-01T23:52:07.504Z,99089.70
2024-03-01T23:54:35.085Z,99087.99
2024-03-01T23:57:02.831Z,99089.48
2024-03-01T23:59:30.385Z,99088.89
